Time;durP1;ratioP1;P1;durP2;ratioP2;P2;SDS_P1;SDS_P2;PMS_P1;PMS_P2;Temp;Humidity;BMP_temperature;BMP_pressure;BME280_temperature;BME280_humidity;BME280_pressure;Samples;Min_cycle;Max_cycle;Signal;HPM_P1;HPM_P2
2023/10/16 00:02:27;;;;;;;7.38;1.23;;;16.10;49.50;;;;;;6217380;28;20037;-65
2023/10/16 00:05:53;;;;;;;3.92;0.65;;;16.00;49.60;;;;;;6204448;28;20042;-65
2023/10/16 00:08:59;;;;;;;5.00;1.10;;;15.90;49.70;;;;;;6192051;28;20045;-65
2023/10/16 00:12:02;;;;;;;3.38;1.05;;;15.90;49.80;;;;;;6192825;28;20442;-65
2023/10/16 00:15:03;;;;;;;0.80;0.63;;;15.90;49.90;;;;;;6191087;28;20126;-66
2023/10/16 00:18:13;;;;;;;4.53;1.13;;;15.90;50.10;;;;;;6190716;28;20074;-64
2023/10/16 00:21:15;;;;;;;1.40;0.75;;;15.90;50.30;;;;;;6190949;28;20116;-65
2023/10/16 00:24:16;;;;;;;3.63;0.77;;;15.90;50.50;;;;;;6190968;28;20549;-63
2023/10/16 00:27:21;;;;;;;2.75;0.77;;;15.80;50.50;;;;;;6190853;28;20247;-64
2023/10/16 00:30:23;;;;;;;0.88;0.50;;;15.80;50.70;;;;;;6192196;28;20503;-64
2023/10/16 00:33:24;;;;;;;1.98;0.90;;;15.80;50.30;;;;;;6190587;28;20030;-65
2023/10/16 00:36:53;;;;;;;2.42;0.70;;;15.80;50.70;;;;;;6192865;28;20050;-65
2023/10/16 00:39:56;;;;;;;3.28;0.60;;;15.80;50.70;;;;;;6192691;28;20134;-64
2023/10/16 00:43:05;;;;;;;1.15;0.60;;;15.80;50.90;;;;;;6191822;28;20034;-64
2023/10/16 00:46:09;;;;;;;1.05;0.70;;;15.80;51.10;;;;;;6191889;28;20030;-64
2023/10/16 00:49:12;;;;;;;0.80;0.60;;;15.70;51.20;;;;;;6200173;28;20459;-64
2023/10/16 00:52:14;;;;;;;5.07;0.65;;;15.60;51.40;;;;;;6193291;28;20065;-63
2023/10/16 00:55:20;;;;;;;0.50;0.50;;;15.60;51.60;;;;;;6190405;28;20026;-63
2023/10/16 00:58:21;;;;;;;3.47;0.90;;;15.60;51.80;;;;;;6191665;28;20375;-64
2023/10/16 01:01:47;;;;;;;2.97;0.80;;;15.60;52.00;;;;;;6194897;28;20370;-64
2023/10/16 01:04:51;;;;;;;1.85;0.70;;;15.50;52.00;;;;;;6216513;28;20096;-64
2023/10/16 01:07:54;;;;;;;1.10;0.60;;;15.50;52.10;;;;;;6216192;28;20037;-64
2023/10/16 01:11:20;;;;;;;1.63;0.55;;;15.50;52.10;;;;;;6216094;28;20042;-64
2023/10/16 01:14:45;;;;;;;1.10;0.47;;;15.50;52.10;;;;;;6216243;28;20505;-64
2023/10/16 01:17:46;;;;;;;2.85;0.82;;;15.50;52.10;;;;;;6213832;28;20489;-64
2023/10/16 01:20:51;;;;;;;1.67;0.80;;;15.50;52.70;;;;;;6212936;28;20040;-63
2023/10/16 01:23:52;;;;;;;3.22;0.75;;;15.50;52.10;;;;;;6215112;28;20104;-65
2023/10/16 01:27:01;;;;;;;1.35;0.70;;;15.50;52.20;;;;;;6215080;28;20041;-64
2023/10/16 01:30:07;;;;;;;0.77;0.55;;;15.40;52.20;;;;;;6214991;28;20486;-64
2023/10/16 01:33:08;;;;;;;1.75;0.75;;;15.40;52.50;;;;;;6213747;28;20048;-64
2023/10/16 01:36:36;;;;;;;1.95;0.65;;;15.40;52.60;;;;;;6214520;28;20148;-64
2023/10/16 01:40:12;;;;;;;2.13;0.40;;;15.30;52.70;;;;;;6215018;28;20033;-64
2023/10/16 01:43:05;;;;;;;2.30;0.93;;;15.30;52.80;;;;;;6214931;28;20117;-64
2023/10/16 01:46:12;;;;;;;2.17;0.70;;;15.30;52.70;;;;;;6210185;28;20159;-64
2023/10/16 01:49:15;;;;;;;2.33;0.57;;;15.30;52.70;;;;;;6199908;28;20038;-65
2023/10/16 01:52:19;;;;;;;2.47;0.75;;;15.30;52.70;;;;;;6214778;28;20087;-65
2023/10/16 01:55:20;;;;;;;1.00;0.60;;;15.30;52.70;;;;;;6214874;28;20100;-65
2023/10/16 01:58:23;;;;;;;1.65;0.95;;;15.30;52.70;;;;;;6215012;28;20033;-65
2023/10/16 02:01:24;;;;;;;1.05;0.40;;;15.30;52.70;;;;;;6181264;28;20033;-64
2023/10/16 02:04:24;;;;;;;1.25;0.57;;;15.30;52.80;;;;;;6214813;28;20115;-63
2023/10/16 02:07:33;;;;;;;0.57;0.50;;;15.30;52.80;;;;;;6214911;28;20108;-65
2023/10/16 02:10:36;;;;;;;1.20;0.68;;;15.20;52.90;;;;;;6212673;28;20121;-65
2023/10/16 02:13:40;;;;;;;3.13;0.82;;;15.20;53.00;;;;;;6214867;28;20401;-64
2023/10/16 02:16:41;;;;;;;1.40;0.80;;;15.20;53.20;;;;;;6213224;28;20111;-65
2023/10/16 02:19:45;;;;;;;0.98;0.63;;;15.20;53.30;;;;;;6212945;28;20069;-65
2023/10/16 02:22:46;;;;;;;3.08;0.70;;;15.20;53.40;;;;;;6215231;28;20041;-65
2023/10/16 02:25:47;;;;;;;3.67;0.65;;;15.20;53.40;;;;;;6199660;28;20136;-64
2023/10/16 02:28:54;;;;;;;0.95;0.60;;;15.10;53.40;;;;;;6214767;28;20501;-63
2023/10/16 02:31:56;;;;;;;3.75;0.50;;;15.20;53.40;;;;;;6200982;28;20460;-63
2023/10/16 02:34:57;;;;;;;2.38;0.85;;;15.10;52.90;;;;;;6219531;28;20451;-67
2023/10/16 02:37:57;;;;;;;1.50;0.77;;;15.10;53.40;;;;;;6219178;28;20025;-65
2023/10/16 02:41:03;;;;;;;0.70;0.55;;;15.10;53.50;;;;;;6218822;28;20029;-64
2023/10/16 02:44:05;;;;;;;1.42;0.60;;;15.00;53.60;;;;;;6219017;28;20525;-66
2023/10/16 02:47:08;;;;;;;3.72;0.73;;;15.00;53.80;;;;;;6219260;28;20041;-65
2023/10/16 02:50:09;;;;;;;2.03;0.70;;;14.90;53.80;;;;;;6192759;28;20030;-66
2023/10/16 02:53:11;;;;;;;0.98;0.65;;;14.90;53.90;;;;;;6193976;28;20469;-63
2023/10/16 02:59:12;;;;;;;1.85;0.63;;;14.90;53.90;;;;;;6218461;28;20686;-64
2023/10/16 03:02:22;;;;;;;1.30;0.80;;;14.90;53.90;;;;;;6218818;28;20079;-66
2023/10/16 03:05:23;;;;;;;2.88;0.75;;;14.90;54.00;;;;;;6218319;28;20045;-64
2023/10/16 03:08:32;;;;;;;3.60;1.02;;;14.90;54.10;;;;;;6218349;28;20427;-64
2023/10/16 03:11:32;;;;;;;2.17;0.93;;;14.90;54.10;;;;;;6216879;28;20113;-63
2023/10/16 03:14:46;;;;;;;3.60;1.05;;;14.90;54.30;;;;;;6217850;28;20036;-64
2023/10/16 03:17:50;;;;;;;1.80;0.82;;;14.90;54.30;;;;;;6216680;28;20032;-66
2023/10/16 03:21:01;;;;;;;2.15;0.80;;;14.90;54.30;;;;;;6218037;28;20057;-62
2023/10/16 03:24:02;;;;;;;1.92;0.60;;;14.90;54.50;;;;;;6216587;28;20148;-65
2023/10/16 03:27:08;;;;;;;1.52;0.70;;;14.90;54.50;;;;;;6216768;28;20022;-65
2023/10/16 03:30:10;;;;;;;3.15;0.93;;;14.90;54.60;;;;;;6216100;28;20030;-64
2023/10/16 03:33:16;;;;;;;0.88;0.70;;;14.90;54.50;;;;;;6217883;28;20059;-64
2023/10/16 03:36:17;;;;;;;1.45;0.70;;;14.90;54.40;;;;;;6200347;28;20049;-65
2023/10/16 03:39:19;;;;;;;1.45;0.63;;;14.90;54.40;;;;;;6217774;28;20033;-63
2023/10/16 03:42:23;;;;;;;2.13;0.43;;;15.00;54.50;;;;;;6215514;28;20061;-66
2023/10/16 03:45:24;;;;;;;1.90;0.65;;;15.00;55.20;;;;;;6217829;28;20038;-66
2023/10/16 03:48:26;;;;;;;1.55;0.60;;;14.90;54.60;;;;;;6217615;28;20030;-63
2023/10/16 03:51:27;;;;;;;3.40;0.93;;;14.90;54.90;;;;;;6198481;28;20041;-65
2023/10/16 03:54:31;;;;;;;1.20;0.68;;;14.80;55.00;;;;;;6193363;28;20558;-64
2023/10/16 03:57:32;;;;;;;4.10;0.95;;;14.70;55.00;;;;;;6193083;28;20102;-64
2023/10/16 04:00:52;;;;;;;12.65;1.35;;;14.70;55.00;;;;;;6201128;28;20452;-64
2023/10/16 04:03:57;;;;;;;3.40;0.40;;;14.70;55.10;;;;;;6217355;28;20095;-64
2023/10/16 04:06:58;;;;;;;1.67;0.75;;;14.70;55.10;;;;;;6218505;28;20049;-65
2023/10/16 04:10:21;;;;;;;1.25;0.75;;;14.70;55.30;;;;;;6219274;28;20026;-64
2023/10/16 04:13:26;;;;;;;1.88;0.98;;;13.90;55.00;;;;;;6217663;28;20042;-65
2023/10/16 04:16:54;;;;;;;0.88;0.63;;;14.60;55.50;;;;;;6217229;28;20042;-65
2023/10/16 04:20:42;;;;;;;1.30;0.70;;;14.50;55.60;;;;;;6215267;28;20540;-65
2023/10/16 04:23:52;;;;;;;4.97;0.90;;;14.50;55.70;;;;;;6215163;28;20046;-66
2023/10/16 04:26:57;;;;;;;7.72;0.90;;;14.50;55.70;;;;;;6216643;28;20124;-65
2023/10/16 04:33:16;;;;;;;1.23;0.90;;;14.50;55.80;;;;;;6216764;28;20055;-63
2023/10/16 04:43:19;;;;;;;1.90;0.80;;;14.50;55.70;;;;;;6216392;28;20042;-64
2023/10/16 04:46:20;;;;;;;3.13;0.85;;;14.60;55.70;;;;;;6216023;28;20525;-64
2023/10/16 04:49:28;;;;;;;1.27;0.80;;;14.60;55.50;;;;;;6215742;28;20049;-67
2023/10/16 04:58:59;;;;;;;1.35;0.80;;;14.70;55.30;;;;;;6215665;28;20091;-66
2023/10/16 05:05:32;;;;;;;0.88;0.50;;;14.70;55.40;;;;;;6192021;28;20160;-64
2023/10/16 05:08:49;;;;;;;0.90;0.50;;;14.70;55.30;;;;;;6191651;28;20042;-65
2023/10/16 05:18:11;;;;;;;3.50;1.02;;;14.60;55.10;;;;;;6214209;28;20030;-64
2023/10/16 06:14:34;;;;;;;2.53;1.02;;;14.30;56.00;;;;;;6215916;28;20034;-65
2023/10/16 06:17:37;;;;;;;2.53;1.10;;;14.30;56.00;;;;;;6214558;28;20050;-64
2023/10/16 06:20:43;;;;;;;12.18;1.80;;;14.40;56.00;;;;;;6213385;28;20572;-65
2023/10/16 06:23:51;;;;;;;6.70;2.13;;;14.40;56.00;;;;;;6212956;28;20077;-65
2023/10/16 06:26:55;;;;;;;10.10;1.63;;;14.40;56.00;;;;;;6214773;28;20082;-64
2023/10/16 06:29:57;;;;;;;5.45;1.25;;;14.40;56.10;;;;;;6213365;28;20042;-65
2023/10/16 06:33:02;;;;;;;5.88;1.88;;;14.30;56.00;;;;;;6214119;28;20034;-65
2023/10/16 06:36:03;;;;;;;7.38;1.25;;;14.30;56.10;;;;;;6215246;28;20478;-66
2023/10/16 06:39:06;;;;;;;7.25;0.95;;;14.40;56.10;;;;;;6197152;28;20038;-64
2023/10/16 06:42:14;;;;;;;4.18;0.90;;;14.40;56.10;;;;;;6214869;28;20447;-66
2023/10/16 06:45:40;;;;;;;1.75;0.80;;;14.30;56.10;;;;;;6214393;28;20508;-64
2023/10/16 06:48:41;;;;;;;3.85;1.20;;;14.40;56.20;;;;;;6213516;28;20131;-65
2023/10/16 06:51:44;;;;;;;1.63;1.05;;;14.30;56.30;;;;;;6214146;28;20377;-66
2023/10/16 06:54:46;;;;;;;1.40;0.90;;;14.30;56.40;;;;;;6214372;28;20034;-64
2023/10/16 06:57:47;;;;;;;5.78;1.15;;;14.30;56.50;;;;;;6213226;28;20034;-66
2023/10/16 07:00:49;;;;;;;10.15;1.23;;;14.30;56.50;;;;;;6214048;28;20029;-65
2023/10/16 07:03:50;;;;;;;1.48;0.90;;;14.30;56.50;;;;;;6212596;28;20057;-65
2023/10/16 07:06:51;;;;;;;1.13;1.02;;;14.30;56.50;;;;;;6211890;28;20041;-64
2023/10/16 07:09:54;;;;;;;2.00;1.17;;;14.40;56.50;;;;;;6213831;28;20387;-66
2023/10/16 07:13:02;;;;;;;3.17;1.15;;;14.30;56.40;;;;;;6212589;28;20116;-65
2023/10/16 07:16:05;;;;;;;26.73;1.42;;;14.40;56.50;;;;;;6214149;28;20703;-66
2023/10/16 07:19:07;;;;;;;3.97;1.00;;;14.50;56.40;;;;;;6215969;28;20348;-64
2023/10/16 07:22:10;;;;;;;1.58;0.95;;;14.50;56.20;;;;;;6216954;28;20153;-66
2023/10/16 07:25:24;;;;;;;4.97;1.73;;;14.50;56.00;;;;;;6201996;28;20157;-65
2023/10/16 07:28:26;;;;;;;4.03;1.25;;;14.60;56.10;;;;;;6194056;28;20470;-64
2023/10/16 07:31:27;;;;;;;3.88;1.10;;;14.60;56.00;;;;;;6193476;28;20045;-64
2023/10/16 07:34:31;;;;;;;6.38;1.73;;;14.70;55.90;;;;;;6193990;28;20113;-66
2023/10/16 07:37:33;;;;;;;3.28;1.27;;;14.80;56.40;;;;;;6192104;28;20045;-65
2023/10/16 07:40:37;;;;;;;4.13;1.48;;;14.90;55.60;;;;;;6193087;28;20042;-65
2023/10/16 07:43:38;;;;;;;2.90;1.10;;;15.00;55.50;;;;;;6191842;28;20045;-66
2023/10/16 07:46:39;;;;;;;13.05;1.73;;;15.10;55.30;;;;;;6193044;28;20121;-66
2023/10/16 07:49:41;;;;;;;5.88;1.35;;;15.20;55.10;;;;;;6193022;28;20553;-67
2023/10/16 07:52:43;;;;;;;5.57;1.30;;;15.30;54.80;;;;;;6193098;28;20117;-66
2023/10/16 07:55:50;;;;;;;3.67;1.60;;;15.50;54.60;;;;;;6192903;28;20121;-65
2023/10/16 07:59:12;;;;;;;10.10;1.60;;;15.60;54.30;;;;;;6190688;28;20480;-65
2023/10/16 08:02:20;;;;;;;1.60;0.90;;;15.60;53.90;;;;;;6213993;28;20081;-63
2023/10/16 08:05:20;;;;;;;2.92;1.25;;;15.60;53.70;;;;;;6216713;28;20604;-64
2023/10/16 08:08:27;;;;;;;4.35;1.58;;;15.60;53.70;;;;;;6216772;28;20116;-66
2023/10/16 08:11:28;;;;;;;4.88;1.65;;;15.70;53.70;;;;;;6206282;28;20031;-66
2023/10/16 08:14:30;;;;;;;6.10;2.55;;;15.70;53.50;;;;;;6192275;28;20506;-66
2023/10/16 08:17:32;;;;;;;5.85;2.78;;;15.70;53.40;;;;;;6192453;28;20112;-64
2023/10/16 08:21:00;;;;;;;6.85;3.03;;;15.70;53.40;;;;;;6201167;28;20026;-64
2023/10/16 08:24:01;;;;;;;4.68;1.95;;;15.70;53.50;;;;;;6215458;28;20084;-66
2023/10/16 08:27:11;;;;;;;4.88;1.70;;;15.80;53.30;;;;;;6215282;28;20502;-64
2023/10/16 08:30:18;;;;;;;2.03;1.05;;;15.90;53.00;;;;;;6216176;28;20427;-63
2023/10/16 08:33:28;;;;;;;3.72;1.33;;;16.00;52.80;;;;;;6216926;28;20037;-64
2023/10/16 08:36:29;;;;;;;3.17;1.00;;;16.00;52.60;;;;;;6215022;28;20032;-67
2023/10/16 08:39:36;;;;;;;4.50;1.65;;;16.20;52.50;;;;;;6214827;28;20030;-65
2023/10/16 08:42:40;;;;;;;6.53;1.35;;;16.20;52.10;;;;;;6216551;28;20056;-65
2023/10/16 08:45:48;;;;;;;2.85;1.10;;;16.30;51.90;;;;;;6216413;28;20065;-67
2023/10/16 08:48:52;;;;;;;21.75;2.28;;;16.30;51.90;;;;;;6214326;28;20410;-66
2023/10/16 08:51:55;;;;;;;12.38;2.55;;;16.40;51.90;;;;;;6215878;28;20026;-64
2023/10/16 08:55:02;;;;;;;15.77;3.65;;;16.40;51.70;;;;;;6215895;28;20036;-65
2023/10/16 08:58:04;;;;;;;9.55;2.47;;;16.50;51.60;;;;;;6215335;28;20387;-64
2023/10/16 09:01:07;;;;;;;3.08;1.73;;;16.50;51.60;;;;;;6201144;28;20038;-64
2023/10/16 09:04:10;;;;;;;2.55;1.25;;;16.60;51.50;;;;;;6191259;28;20034;-65
2023/10/16 09:07:11;;;;;;;10.40;3.13;;;16.70;51.40;;;;;;6190844;28;20030;-65
2023/10/16 09:10:12;;;;;;;7.47;2.95;;;16.80;51.10;;;;;;6191118;28;20100;-64
2023/10/16 09:13:19;;;;;;;10.10;4.25;;;16.90;50.90;;;;;;6215026;28;20041;-64
2023/10/16 09:16:23;;;;;;;18.80;4.45;;;17.00;50.80;;;;;;6209683;28;20117;-64
2023/10/16 09:19:33;;;;;;;9.30;3.67;;;17.10;50.60;;;;;;6189222;28;20062;-65
2023/10/16 09:22:39;;;;;;;10.30;2.97;;;17.20;50.40;;;;;;6193311;28;20045;-64
2023/10/16 09:25:44;;;;;;;3.45;1.58;;;17.30;50.20;;;;;;6192017;28;20037;-66
2023/10/16 09:28:50;;;;;;;4.82;2.28;;;17.30;49.90;;;;;;6204921;28;20042;-64
2023/10/16 09:31:51;;;;;;;13.82;5.20;;;17.30;50.00;;;;;;6215898;28;20117;-64
2023/10/16 09:34:53;;;;;;;13.23;2.53;;;17.30;50.00;;;;;;6215583;28;20120;-64
2023/10/16 09:38:09;;;;;;;11.02;2.70;;;17.30;50.00;;;;;;6215428;28;20100;-65
2023/10/16 09:41:38;;;;;;;3.28;1.52;;;17.30;49.90;;;;;;6213145;28;20041;-64
2023/10/16 09:44:51;;;;;;;14.65;3.00;;;17.30;49.90;;;;;;6215131;28;20041;-68
2023/10/16 09:48:07;;;;;;;15.85;5.50;;;17.30;49.90;;;;;;6215911;28;20418;-66
2023/10/16 09:51:09;;;;;;;6.45;2.40;;;17.30;49.80;;;;;;6190593;28;20178;-66
2023/10/16 09:54:11;;;;;;;6.32;2.40;;;17.40;50.00;;;;;;6190956;28;20037;-66
2023/10/16 09:57:16;;;;;;;2.53;1.52;;;17.40;49.80;;;;;;6190628;28;20105;-65
2023/10/16 10:00:31;;;;;;;8.38;1.88;;;17.50;49.80;;;;;;6189418;28;20037;-64
2023/10/16 10:03:35;;;;;;;5.72;1.70;;;17.30;49.70;;;;;;6191214;28;20062;-66
2023/10/16 10:06:39;;;;;;;9.82;3.47;;;17.70;49.70;;;;;;6191923;28;20038;-68
2023/10/16 10:09:46;;;;;;;9.15;3.17;;;17.80;49.30;;;;;;6191225;28;20042;-64
2023/10/16 10:12:53;;;;;;;11.80;4.50;;;17.80;49.20;;;;;;6203317;28;20044;-65
2023/10/16 10:15:58;;;;;;;7.15;2.92;;;17.90;49.10;;;;;;6190436;28;20041;-65
2023/10/16 10:19:04;;;;;;;24.02;6.65;;;17.90;49.10;;;;;;6188902;28;20131;-66
2023/10/16 10:22:17;;;;;;;16.42;3.38;;;18.00;48.80;;;;;;6190665;28;20031;-64
2023/10/16 10:25:40;;;;;;;12.02;3.78;;;18.10;48.60;;;;;;6206384;28;20041;-67
2023/10/16 10:28:41;;;;;;;4.28;1.95;;;18.30;48.60;;;;;;6212731;28;20101;-66
2023/10/16 10:31:46;;;;;;;3.67;1.70;;;18.40;48.20;;;;;;6213698;28;20073;-66
2023/10/16 10:34:47;;;;;;;10.25;3.67;;;18.50;47.80;;;;;;6214438;28;20026;-68
2023/10/16 10:37:48;;;;;;;7.13;2.85;;;18.60;47.50;;;;;;6214449;28;20081;-65
2023/10/16 10:41:10;;;;;;;11.43;3.08;;;18.70;47.60;;;;;;6213207;28;20125;-65
2023/10/16 10:44:14;;;;;;;4.88;2.03;;;18.80;47.20;;;;;;6212872;28;20030;-64
2023/10/16 10:47:24;;;;;;;12.48;3.95;;;18.90;46.70;;;;;;6214001;28;20040;-67
2023/10/16 10:50:27;;;;;;;3.33;1.58;;;18.90;46.60;;;;;;6214040;28;20493;-64
2023/10/16 10:53:27;;;;;;;4.15;1.50;;;19.00;46.30;;;;;;6219000;28;20133;-66
2023/10/16 10:56:41;;;;;;;3.67;1.15;;;18.90;46.10;;;;;;6217451;28;20501;-64
2023/10/16 11:03:08;;;;;;;3.90;1.58;;;19.00;46.20;;;;;;6166711;28;20043;-66
2023/10/16 11:06:19;;;;;;;8.13;1.50;;;19.10;45.70;;;;;;6166476;28;20039;-67
2023/10/16 11:09:26;;;;;;;6.53;1.65;;;19.20;45.70;;;;;;6150203;28;20030;-66
2023/10/16 11:12:30;;;;;;;2.85;1.30;;;19.30;45.40;;;;;;6166824;28;20764;-65
2023/10/16 11:15:31;;;;;;;7.72;1.55;;;19.30;45.00;;;;;;6166237;28;20102;-67
2023/10/16 11:18:32;;;;;;;3.15;1.33;;;19.30;45.20;;;;;;6166873;28;20080;-67
2023/10/16 11:21:35;;;;;;;9.02;1.27;;;19.30;45.20;;;;;;6159394;28;20054;-66
2023/10/16 11:24:36;;;;;;;2.10;1.23;;;19.40;45.10;;;;;;6142349;29;20168;-67
2023/10/16 11:27:37;;;;;;;9.43;1.48;;;19.40;45.00;;;;;;6142184;29;20058;-64
2023/10/16 11:30:39;;;;;;;6.13;1.42;;;19.50;45.10;;;;;;6141711;29;20043;-66
2023/10/16 11:33:47;;;;;;;7.65;1.60;;;19.70;45.10;;;;;;6126035;29;20588;-67
2023/10/16 11:36:50;;;;;;;2.05;0.85;;;19.90;44.70;;;;;;6126158;29;20201;-65
2023/10/16 11:39:55;;;;;;;2.63;1.25;;;20.10;44.40;;;;;;6153343;28;20130;-64
2023/10/16 11:42:58;;;;;;;5.35;1.70;;;20.20;44.10;;;;;;6193506;28;20065;-66
2023/10/16 11:46:05;;;;;;;3.38;1.55;;;20.20;44.00;;;;;;6193284;28;20046;-65
2023/10/16 11:52:20;;;;;;;4.18;1.70;;;20.50;43.70;;;;;;6193718;28;20048;-66
2023/10/16 11:55:23;;;;;;;6.53;1.45;;;20.70;43.60;;;;;;6193213;28;20455;-66
2023/10/16 11:58:23;;;;;;;6.68;1.60;;;20.70;43.20;;;;;;6192203;28;20054;-66
2023/10/16 12:01:26;;;;;;;2.42;1.08;;;20.70;43.10;;;;;;6209623;28;20033;-65
2023/10/16 12:04:27;;;;;;;5.47;2.15;;;20.70;43.10;;;;;;6216443;28;20049;-67
2023/10/16 12:07:28;;;;;;;2.47;1.27;;;20.70;43.20;;;;;;6217196;28;20077;-68
2023/10/16 12:10:29;;;;;;;2.95;1.50;;;20.70;43.10;;;;;;6215648;28;20071;-67
2023/10/16 12:13:31;;;;;;;6.70;1.67;;;20.60;43.20;;;;;;6215284;28;20116;-68
2023/10/16 12:16:34;;;;;;;6.82;2.25;;;20.60;43.20;;;;;;6217185;28;20389;-67
2023/10/16 12:19:35;;;;;;;4.05;1.70;;;20.50;43.10;;;;;;6215655;28;20057;-66
2023/10/16 12:22:39;;;;;;;6.63;1.60;;;20.50;43.20;;;;;;6216329;28;20040;-66
2023/10/16 12:25:40;;;;;;;4.50;1.80;;;20.40;43.30;;;;;;6217160;28;20073;-67
2023/10/16 12:28:40;;;;;;;5.93;1.30;;;20.50;43.30;;;;;;6216765;28;20136;-65
2023/10/16 12:31:41;;;;;;;8.45;2.15;;;20.70;43.10;;;;;;6216871;28;20386;-66
2023/10/16 12:34:42;;;;;;;2.05;1.25;;;20.80;42.80;;;;;;6216816;28;20116;-66
2023/10/16 12:37:43;;;;;;;4.72;1.58;;;20.90;42.60;;;;;;6216418;28;20124;-66
2023/10/16 12:40:44;;;;;;;5.72;2.53;;;20.90;42.60;;;;;;6216411;28;20030;-65
2023/10/16 12:43:46;;;;;;;3.30;1.50;;;20.90;42.50;;;;;;6216473;28;20045;-66
2023/10/16 12:46:48;;;;;;;3.05;1.33;;;20.90;42.60;;;;;;6216054;28;20041;-65
2023/10/16 12:49:53;;;;;;;8.77;1.27;;;20.90;42.70;;;;;;6216225;28;20466;-64
2023/10/16 12:53:00;;;;;;;7.32;1.30;;;21.00;42.60;;;;;;6214393;28;20405;-64
2023/10/16 12:56:05;;;;;;;3.00;1.30;;;21.10;42.30;;;;;;6214661;28;20033;-66
2023/10/16 12:59:08;;;;;;;9.02;1.88;;;21.00;42.40;;;;;;6215940;28;20733;-65
2023/10/16 13:02:09;;;;;;;7.60;2.05;;;21.00;42.20;;;;;;6215477;28;20491;-66
2023/10/16 13:05:13;;;;;;;2.97;1.50;;;20.90;42.10;;;;;;6215701;28;20065;-66
2023/10/16 13:08:16;;;;;;;2.88;1.27;;;20.80;42.20;;;;;;6214223;28;20033;-67
2023/10/16 13:11:18;;;;;;;3.05;1.40;;;20.70;42.40;;;;;;6206981;28;20038;-66
2023/10/16 13:14:19;;;;;;;3.90;1.55;;;20.60;42.70;;;;;;6210587;28;20367;-66
2023/10/16 13:17:20;;;;;;;6.82;1.63;;;20.60;43.00;;;;;;6215126;28;20052;-65
2023/10/16 13:20:26;;;;;;;2.10;1.02;;;20.60;43.20;;;;;;6213595;28;20053;-66
2023/10/16 13:23:26;;;;;;;6.70;1.63;;;20.60;43.20;;;;;;6215650;28;20087;-65
2023/10/16 13:26:29;;;;;;;2.35;1.33;;;20.70;43.20;;;;;;6216101;28;20022;-66
2023/10/16 13:29:30;;;;;;;13.65;4.05;;;20.60;43.20;;;;;;6214635;28;20034;-66
2023/10/16 13:32:31;;;;;;;5.47;2.17;;;20.70;43.40;;;;;;6213500;28;20076;-65
2023/10/16 13:35:32;;;;;;;9.15;1.58;;;20.70;43.30;;;;;;6213725;28;20053;-65
2023/10/16 13:38:33;;;;;;;6.68;1.40;;;20.80;43.30;;;;;;6213501;28;20034;-64
2023/10/16 13:41:53;;;;;;;30.20;1.75;;;20.90;43.40;;;;;;6215911;28;20579;-67
2023/10/16 13:44:54;;;;;;;2.22;1.27;;;20.90;43.30;;;;;;6215245;28;20120;-66
2023/10/16 13:47:55;;;;;;;6.55;1.40;;;21.00;43.20;;;;;;6213168;28;20034;-65
2023/10/16 13:50:57;;;;;;;5.07;1.30;;;21.10;43.10;;;;;;6213347;28;20033;-65
2023/10/16 13:53:59;;;;;;;4.88;1.25;;;21.10;43.00;;;;;;6214594;28;20052;-66
2023/10/16 13:57:01;;;;;;;4.88;1.45;;;21.20;42.90;;;;;;6215070;28;20029;-65
2023/10/16 14:00:03;;;;;;;8.25;2.70;;;21.20;43.00;;;;;;6190120;28;20511;-67
2023/10/16 14:06:22;;;;;;;11.98;2.22;;;21.30;42.80;;;;;;6188820;28;20069;-65
2023/10/16 14:09:32;;;;;;;1.45;1.10;;;21.30;42.70;;;;;;6189871;28;20082;-65
2023/10/16 14:12:37;;;;;;;5.32;1.30;;;21.40;42.70;;;;;;6209052;28;20118;-64
2023/10/16 14:15:41;;;;;;;2.70;1.02;;;21.40;42.70;;;;;;6214778;28;20105;-66
2023/10/16 14:18:43;;;;;;;2.60;1.40;;;21.40;42.70;;;;;;6213977;28;20034;-65
2023/10/16 14:21:44;;;;;;;15.65;1.50;;;21.60;42.70;;;;;;6213124;28;20125;-66
2023/10/16 14:24:45;;;;;;;4.07;1.33;;;21.40;42.60;;;;;;6212600;28;20034;-66
2023/10/16 14:27:46;;;;;;;1.98;1.10;;;21.40;42.50;;;;;;6216555;28;20088;-64
2023/10/16 14:30:47;;;;;;;2.47;1.25;;;21.50;42.60;;;;;;6217529;28;20149;-66
2023/10/16 14:33:49;;;;;;;5.15;1.25;;;21.50;42.50;;;;;;6217950;28;20679;-65
2023/10/16 14:36:52;;;;;;;5.03;1.23;;;21.50;42.50;;;;;;6201122;28;20518;-66
2023/10/16 14:39:56;;;;;;;12.02;1.38;;;21.50;42.50;;;;;;6217662;28;20025;-65
2023/10/16 14:42:57;;;;;;;2.45;1.10;;;21.40;42.50;;;;;;6219323;28;20532;-66
2023/10/16 14:46:00;;;;;;;4.63;1.83;;;21.40;42.50;;;;;;6218895;28;20037;-64
2023/10/16 14:49:02;;;;;;;9.55;3.35;;;21.30;42.50;;;;;;6216985;28;20478;-65
2023/10/16 14:52:03;;;;;;;2.67;1.67;;;21.20;42.80;;;;;;6218985;28;20408;-66
2023/10/16 14:55:04;;;;;;;2.05;1.20;;;21.00;42.90;;;;;;6202518;28;20027;-66
2023/10/16 14:58:06;;;;;;;3.35;1.20;;;20.90;43.20;;;;;;6194359;28;20058;-65
2023/10/16 15:01:15;;;;;;;6.15;1.40;;;20.80;43.40;;;;;;6194233;28;20399;-66
2023/10/16 15:04:17;;;;;;;9.73;1.55;;;20.80;44.10;;;;;;6195051;28;20085;-67
2023/10/16 15:07:18;;;;;;;2.25;1.15;;;20.80;43.60;;;;;;6218431;28;20022;-66
2023/10/16 15:10:19;;;;;;;6.03;2.28;;;20.80;43.50;;;;;;6217810;28;20486;-65
2023/10/16 15:13:21;;;;;;;4.22;0.93;;;20.80;43.30;;;;;;6218132;28;20049;-65
2023/10/16 15:16:22;;;;;;;1.70;0.80;;;20.90;43.10;;;;;;6218109;28;20076;-66
2023/10/16 15:19:26;;;;;;;5.68;1.17;;;20.80;42.90;;;;;;6217975;28;20057;-66
2023/10/16 15:22:27;;;;;;;5.30;1.40;;;20.80;43.00;;;;;;6216604;28;20072;-66
2023/10/16 15:25:28;;;;;;;6.28;1.25;;;20.70;43.10;;;;;;6218164;28;20030;-66
2023/10/16 15:28:31;;;;;;;8.68;1.83;;;20.70;43.80;;;;;;6217405;28;20046;-65
2023/10/16 15:31:32;;;;;;;3.97;1.58;;;20.60;43.30;;;;;;6217629;28;20143;-65
2023/10/16 15:34:33;;;;;;;7.80;1.50;;;20.60;43.40;;;;;;6215844;28;20391;-67
2023/10/16 15:37:38;;;;;;;12.95;2.35;;;20.60;43.40;;;;;;6216607;28;20509;-67
2023/10/16 15:40:45;;;;;;;7.65;2.40;;;20.70;43.50;;;;;;6217111;28;20060;-64
2023/10/16 15:43:46;;;;;;;3.78;1.17;;;20.70;43.50;;;;;;6217138;28;20038;-67
2023/10/16 15:46:48;;;;;;;3.95;1.60;;;20.70;43.40;;;;;;6215622;28;20143;-66
2023/10/16 15:49:50;;;;;;;4.82;2.38;;;20.70;43.40;;;;;;6216880;28;20491;-67
2023/10/16 15:52:50;;;;;;;4.72;2.50;;;20.60;43.40;;;;;;6217098;28;20029;-66
2023/10/16 15:55:51;;;;;;;4.40;1.27;;;20.60;43.50;;;;;;6215854;28;20030;-66
2023/10/16 15:58:52;;;;;;;6.35;2.47;;;20.50;43.60;;;;;;6216774;28;20026;-67
2023/10/16 16:01:54;;;;;;;9.02;4.25;;;20.40;43.70;;;;;;6216991;28;20457;-65
2023/10/16 16:04:54;;;;;;;5.47;2.15;;;20.30;43.90;;;;;;6216572;28;20177;-64
2023/10/16 16:07:56;;;;;;;2.97;1.77;;;20.30;44.00;;;;;;6216326;28;20030;-65
2023/10/16 16:10:57;;;;;;;8.35;2.78;;;20.20;44.20;;;;;;6214585;28;20061;-64
2023/10/16 16:13:57;;;;;;;5.35;1.60;;;20.20;44.30;;;;;;6216665;28;20057;-66
2023/10/16 16:16:58;;;;;;;5.47;2.20;;;20.10;44.50;;;;;;6216342;28;20030;-66
2023/10/16 16:19:59;;;;;;;4.55;1.98;;;20.00;44.60;;;;;;6216479;28;20046;-66
2023/10/16 16:23:02;;;;;;;8.15;1.90;;;20.00;44.80;;;;;;6214921;28;20029;-66
2023/10/16 16:26:03;;;;;;;9.55;1.80;;;19.90;45.00;;;;;;6216835;28;20049;-67
2023/10/16 16:29:05;;;;;;;4.80;1.95;;;19.90;45.10;;;;;;6214644;28;20033;-66
2023/10/16 16:32:07;;;;;;;4.35;1.55;;;19.90;45.40;;;;;;6216237;28;20088;-68
2023/10/16 16:35:08;;;;;;;4.20;1.63;;;19.80;45.60;;;;;;6216373;28;20037;-66
2023/10/16 16:38:08;;;;;;;2.55;1.70;;;19.70;45.90;;;;;;6214623;28;20065;-67
2023/10/16 16:41:12;;;;;;;6.30;1.77;;;19.70;46.10;;;;;;6216306;28;20034;-67
2023/10/16 16:44:14;;;;;;;2.08;1.67;;;19.60;46.30;;;;;;6216022;28;20030;-66
2023/10/16 16:47:15;;;;;;;3.75;1.73;;;19.50;46.60;;;;;;6202994;28;20391;-66
2023/10/16 16:50:17;;;;;;;6.85;1.63;;;19.50;46.80;;;;;;6206874;28;20131;-65
2023/10/16 16:53:18;;;;;;;8.07;2.10;;;19.40;46.90;;;;;;6215638;28;20029;-65
2023/10/16 16:56:19;;;;;;;4.63;2.08;;;19.40;46.90;;;;;;6216172;28;20465;-66
2023/10/16 16:59:20;;;;;;;8.45;2.50;;;19.40;47.10;;;;;;6210109;28;20091;-67
2023/10/16 17:02:23;;;;;;;6.88;2.72;;;19.30;47.30;;;;;;6214498;28;20734;-64
2023/10/16 17:05:24;;;;;;;8.00;2.38;;;19.30;47.50;;;;;;6215590;28;20068;-66
2023/10/16 17:08:25;;;;;;;7.38;2.50;;;19.30;47.70;;;;;;6215900;28;20132;-65
2023/10/16 17:11:26;;;;;;;6.10;1.83;;;19.20;47.80;;;;;;6213957;28;20037;-66
2023/10/16 17:14:30;;;;;;;6.35;1.90;;;19.20;48.10;;;;;;6215569;28;20112;-66
2023/10/16 17:17:33;;;;;;;9.55;4.05;;;19.10;48.20;;;;;;6215422;28;20026;-64
2023/10/16 17:20:34;;;;;;;4.90;1.60;;;19.10;48.40;;;;;;6214939;28;20109;-64
2023/10/16 17:23:37;;;;;;;3.25;1.60;;;19.10;48.60;;;;;;6213867;28;20038;-68
2023/10/16 17:26:38;;;;;;;3.28;1.70;;;19.00;48.70;;;;;;6214311;28;20056;-64
2023/10/16 17:29:39;;;;;;;3.20;1.55;;;19.00;48.80;;;;;;6215027;28;20513;-65
2023/10/16 17:32:41;;;;;;;9.10;1.92;;;18.90;49.10;;;;;;6215313;28;20038;-66